M/T Arcadia — SY7849 — position and weather

sailwx.info

Track history (hours):
 
Tides and Currents Weather Stations Pressure Air Temp Water Temp Dewpoint Dewpoint Depression Visibility Wind Speed Wind Dir Waves Ship Positions

M/T Arcadia

Last reported at 2014-Sep-30 09:15 UTC. Time now 2014-Oct-01 20:17 UTC.
Position N 37°23' E 023°23'.

Length 76 m; draft 4.7 m.

Type: Ship. MMSI: 240560000.

Date/timePositionNaut miles runAvg speedWind from/ knotsBaromVisibWave heightAir tempDewpointWater temp
2014-Sep-30 09:15N 37°23' E 023°23'1 0.0
2014-Sep-28 20:28N 37°24' E 023°23'10 7.1
2014-Sep-28 19:05N 37°28' E 023°34'4 8.3
2014-Sep-28 18:33N 37°32' E 023°31'8 8.0
2014-Sep-28 17:33N 37°38' E 023°25'8 7.6
2014-Sep-28 16:33N 37°42' E 023°17'8 8.1
2014-Sep-28 15:32N 37°49' E 023°11'6 5.7
2014-Sep-28 14:32N 37°54' E 023°07'2 1.6
2014-Sep-28 13:24N 37°55' E 023°05'0 0.0
2014-Sep-28 12:33N 37°55' E 023°05'0 0.0
2014-Sep-28 11:33N 37°55' E 023°05'0 0.0
2014-Sep-28 10:33N 37°55' E 023°05'0 0.0
2014-Sep-28 09:30N 37°55' E 023°05'0 0.0
2014-Sep-28 08:30N 37°55' E 023°05'0 0.0
2014-Sep-28 07:18N 37°55' E 023°05'0 0.0
2014-Sep-28 06:30N 37°55' E 023°05'0 0.0
2014-Sep-28 04:30N 37°55' E 023°05'0 0.0
2014-Sep-28 03:30N 37°55' E 023°05'0 0.0
2014-Sep-28 02:30N 37°55' E 023°05'0 0.1
2014-Sep-27 23:33N 37°55' E 023°06'3 0.7
2014-Sep-27 19:30N 37°53' E 023°08'8 8.4
2014-Sep-27 18:33N 37°46' E 023°14'8 7.6
2014-Sep-27 17:33N 37°40' E 023°19'8 7.8
2014-Sep-27 16:33N 37°36' E 023°28'7 7.2
2014-Sep-27 15:33N 37°30' E 023°33'8 6.1
2014-Sep-27 14:19N 37°23' E 023°29'6 8.0
2014-Sep-27 13:33N 37°20' E 023°23'112 3.8
2014-Sep-26 08:12N 35°33' E 024°03'4 4.9
2014-Sep-26 07:24N 35°37' E 024°02'7 8.2
2014-Sep-26 06:33N 35°44' E 024°00'9 7.9
2014-Sep-26 05:28N 35°52' E 023°59'7 7.8
2014-Sep-26 04:33N 35°59' E 023°57'8 8.0
2014-Sep-26 03:33N 36°07' E 023°55'8 8.2
2014-Sep-26 02:33N 36°15' E 023°54'8 8.3
2014-Sep-26 01:32N 36°23' E 023°52'8 8.2
2014-Sep-26 00:33N 36°31' E 023°50'9 8.1
2014-Sep-25 23:24N 36°41' E 023°48'15 7.9
2014-Sep-25 21:30N 36°55' E 023°45'17 7.7
2014-Sep-25 19:15N 37°12' E 023°41'22 8.1
2014-Sep-25 16:34N 37°33' E 023°31'8 8.1
2014-Sep-25 15:33N 37°38' E 023°24'8 7.5
2014-Sep-25 14:33N 37°43' E 023°17'8 8.2
2014-Sep-25 13:33N 37°50' E 023°11'7 0.4
2014-Sep-24 18:05N 37°55' E 023°05'0 0.0
2014-Sep-24 17:17N 37°55' E 023°05'4 0.7
2014-Sep-24 11:12N 37°52' E 023°09'6 9.7
2014-Sep-24 10:33N 37°47' E 023°14'9 9.2
2014-Sep-24 09:33N 37°40' E 023°20'9 9.1
2014-Sep-24 08:33N 37°34' E 023°30'9 8.4
2014-Sep-24 07:30N 37°26' E 023°34'8 8.2
2014-Sep-24 06:33N 37°22' E 023°26'74 7.4
2014-Sep-23 20:33N 36°08' E 023°36'8 8.3
2014-Sep-23 19:33N 36°01' E 023°43'8 8.1
2014-Sep-23 18:33N 35°55' E 023°48'8 7.9
2014-Sep-23 17:32N 35°48' E 023°53'8 7.8
2014-Sep-23 16:33N 35°41' E 023°57'8 7.6
2014-Sep-23 15:32N 35°34' E 024°02'1 0.1
2014-Sep-23 04:17N 35°34' E 024°03'7 0.6
2014-Sep-22 17:13N 35°40' E 024°00'9 7.9
2014-Sep-22 16:06N 35°49' E 023°58'17 6.8
2014-Sep-22 13:33N 36°06' E 023°55'7 6.6
2014-Sep-22 12:33N 36°13' E 023°53'8 7.9
2014-Sep-22 11:33N 36°20' E 023°51'8 8.4
2014-Sep-22 10:33N 36°29' E 023°49'8 8.4
2014-Sep-22 09:33N 36°37' E 023°48'9 8.7
2014-Sep-22 08:33N 36°46' E 023°46'9 8.8
2014-Sep-22 07:33N 36°54' E 023°44'34 8.5
2014-Sep-22 03:29N 37°28' E 023°37'8 8.8
2014-Sep-22 02:33N 37°36' E 023°35'9 8.8
2014-Sep-22 01:33N 37°39' E 023°24'8 7.9
2014-Sep-22 00:33N 37°44' E 023°16'9 8.7
2014-Sep-21 23:33N 37°51' E 023°10'6 1.1
2014-Sep-21 18:19N 37°55' E 023°05'0 0.0
2014-Sep-21 17:10N 37°55' E 023°05'0 0.0
2014-Sep-21 08:12N 37°55' E 023°05'1 0.1
2014-Sep-20 18:30N 37°55' E 023°06'0 0.0
2014-Sep-20 17:27N 37°55' E 023°06'0 0.0
2014-Sep-20 16:30N 37°55' E 023°06'0 0.0
2014-Sep-20 15:33N 37°55' E 023°06'0 0.0
2014-Sep-20 14:33N 37°55' E 023°06'0 0.0
2014-Sep-20 13:30N 37°55' E 023°06'0 0.0
2014-Sep-20 12:18N 37°55' E 023°06'  
Track history (hours):
 
Tides and Currents Weather Stations Pressure Air Temp Water Temp Dewpoint Dewpoint Depression Visibility Wind Speed Wind Dir Waves Ship Positions

M/T Arcadia

Last reported at 2014-Sep-30 09:15 UTC. Time now 2014-Oct-01 20:17 UTC.
Position N 37°23' E 023°23'.

Length 76 m; draft 4.7 m.

Type: Ship. MMSI: 240560000.

Date/timePositionNaut miles runAvg speedWind from/ knotsBaromVisibWave heightAir tempDewpointWater temp
2014-Sep-30 09:15N 37°23' E 023°23'1 0.0
2014-Sep-28 20:28N 37°24' E 023°23'10 7.1
2014-Sep-28 19:05N 37°28' E 023°34'4 8.3
2014-Sep-28 18:33N 37°32' E 023°31'8 8.0
2014-Sep-28 17:33N 37°38' E 023°25'8 7.6
2014-Sep-28 16:33N 37°42' E 023°17'8 8.1
2014-Sep-28 15:32N 37°49' E 023°11'6 5.7
2014-Sep-28 14:32N 37°54' E 023°07'2 1.6
2014-Sep-28 13:24N 37°55' E 023°05'0 0.0
2014-Sep-28 12:33N 37°55' E 023°05'0 0.0
2014-Sep-28 11:33N 37°55' E 023°05'0 0.0
2014-Sep-28 10:33N 37°55' E 023°05'0 0.0
2014-Sep-28 09:30N 37°55' E 023°05'0 0.0
2014-Sep-28 08:30N 37°55' E 023°05'0 0.0
2014-Sep-28 07:18N 37°55' E 023°05'0 0.0
2014-Sep-28 06:30N 37°55' E 023°05'0 0.0
2014-Sep-28 04:30N 37°55' E 023°05'0 0.0
2014-Sep-28 03:30N 37°55' E 023°05'0 0.0
2014-Sep-28 02:30N 37°55' E 023°05'0 0.1
2014-Sep-27 23:33N 37°55' E 023°06'3 0.7
2014-Sep-27 19:30N 37°53' E 023°08'8 8.4
2014-Sep-27 18:33N 37°46' E 023°14'8 7.6
2014-Sep-27 17:33N 37°40' E 023°19'8 7.8
2014-Sep-27 16:33N 37°36' E 023°28'7 7.2
2014-Sep-27 15:33N 37°30' E 023°33'8 6.1
2014-Sep-27 14:19N 37°23' E 023°29'6 8.0
2014-Sep-27 13:33N 37°20' E 023°23'112 3.8
2014-Sep-26 08:12N 35°33' E 024°03'4 4.9
2014-Sep-26 07:24N 35°37' E 024°02'7 8.2
2014-Sep-26 06:33N 35°44' E 024°00'9 7.9
2014-Sep-26 05:28N 35°52' E 023°59'7 7.8
2014-Sep-26 04:33N 35°59' E 023°57'8 8.0
2014-Sep-26 03:33N 36°07' E 023°55'8 8.2
2014-Sep-26 02:33N 36°15' E 023°54'8 8.3
2014-Sep-26 01:32N 36°23' E 023°52'8 8.2
2014-Sep-26 00:33N 36°31' E 023°50'9 8.1
2014-Sep-25 23:24N 36°41' E 023°48'15 7.9
2014-Sep-25 21:30N 36°55' E 023°45'17 7.7
2014-Sep-25 19:15N 37°12' E 023°41'22 8.1
2014-Sep-25 16:34N 37°33' E 023°31'8 8.1
2014-Sep-25 15:33N 37°38' E 023°24'8 7.5
2014-Sep-25 14:33N 37°43' E 023°17'8 8.2
2014-Sep-25 13:33N 37°50' E 023°11'7 0.4
2014-Sep-24 18:05N 37°55' E 023°05'0 0.0
2014-Sep-24 17:17N 37°55' E 023°05'4 0.7
2014-Sep-24 11:12N 37°52' E 023°09'6 9.7
2014-Sep-24 10:33N 37°47' E 023°14'9 9.2
2014-Sep-24 09:33N 37°40' E 023°20'9 9.1
2014-Sep-24 08:33N 37°34' E 023°30'9 8.4
2014-Sep-24 07:30N 37°26' E 023°34'8 8.2
2014-Sep-24 06:33N 37°22' E 023°26'74 7.4
2014-Sep-23 20:33N 36°08' E 023°36'8 8.3
2014-Sep-23 19:33N 36°01' E 023°43'8 8.1
2014-Sep-23 18:33N 35°55' E 023°48'8 7.9
2014-Sep-23 17:32N 35°48' E 023°53'8 7.8
2014-Sep-23 16:33N 35°41' E 023°57'8 7.6
2014-Sep-23 15:32N 35°34' E 024°02'1 0.1
2014-Sep-23 04:17N 35°34' E 024°03'7 0.6
2014-Sep-22 17:13N 35°40' E 024°00'9 7.9
2014-Sep-22 16:06N 35°49' E 023°58'17 6.8
2014-Sep-22 13:33N 36°06' E 023°55'7 6.6
2014-Sep-22 12:33N 36°13' E 023°53'8 7.9
2014-Sep-22 11:33N 36°20' E 023°51'8 8.4
2014-Sep-22 10:33N 36°29' E 023°49'8 8.4
2014-Sep-22 09:33N 36°37' E 023°48'9 8.7
2014-Sep-22 08:33N 36°46' E 023°46'9 8.8
2014-Sep-22 07:33N 36°54' E 023°44'34 8.5
2014-Sep-22 03:29N 37°28' E 023°37'8 8.8
2014-Sep-22 02:33N 37°36' E 023°35'9 8.8
2014-Sep-22 01:33N 37°39' E 023°24'8 7.9
2014-Sep-22 00:33N 37°44' E 023°16'9 8.7
2014-Sep-21 23:33N 37°51' E 023°10'6 1.1
2014-Sep-21 18:19N 37°55' E 023°05'0 0.0
2014-Sep-21 17:10N 37°55' E 023°05'0 0.0
2014-Sep-21 08:12N 37°55' E 023°05'1 0.1
2014-Sep-20 18:30N 37°55' E 023°06'0 0.0
2014-Sep-20 17:27N 37°55' E 023°06'0 0.0
2014-Sep-20 16:30N 37°55' E 023°06'0 0.0
2014-Sep-20 15:33N 37°55' E 023°06'0 0.0
2014-Sep-20 14:33N 37°55' E 023°06'0 0.0
2014-Sep-20 13:30N 37°55' E 023°06'0 0.0
2014-Sep-20 12:18N 37°55' E 023°06'  

Dump ship's entire track history